Time;durP1;ratioP1;P1;durP2;ratioP2;P2;SDS_P1;SDS_P2;PMS_P1;PMS_P2;Temp;Humidity;BMP_temperature;BMP_pressure;BME280_temperature;BME280_humidity;BME280_pressure;Samples;Min_cycle;Max_cycle;Signal;HPM_P1;HPM_P2
2022/06/10 00:01:57;;;;;;;;;;;;;;;21.35;28.42;97188.06;5034894;28;984;-75
2022/06/10 00:04:22;;;;;;;;;;;;;;;21.43;28.29;97188.56;5034952;28;926;-75
2022/06/10 00:06:48;;;;;;;;;;;;;;;21.42;28.30;97187.00;5035050;28;1910;-75
2022/06/10 00:09:13;;;;;;;;;;;;;;;21.57;28.01;97188.00;5034983;28;936;-76
2022/06/10 00:11:39;;;;;;;;;;;;;;;21.36;28.63;97189.63;5035022;28;965;-76
2022/06/10 00:14:04;;;;;;;;;;;;;;;21.87;27.75;97188.47;5034936;28;1004;-75
2022/06/10 00:16:29;;;;;;;;;;;;;;;22.39;26.89;97183.91;5034646;28;960;-75
2022/06/10 00:18:56;;;;;;;;;;;;;;;22.41;26.79;97187.03;5035179;28;951;-75
2022/06/10 00:21:22;;;;;;;;;;;;;;;21.79;27.63;97183.06;5034555;28;1050;-75
2022/06/10 00:23:47;;;;;;;;;;;;;;;21.72;27.75;97188.25;5034870;28;966;-75
2022/06/10 00:26:13;;;;;;;;;;;;;;;21.44;28.22;97190.13;5034720;28;1902;-75
2022/06/10 00:28:40;;;;;;;;;;;;;;;21.42;28.32;97187.00;5034708;28;1042;-75
2022/06/10 00:31:05;;;;;;;;;;;;;;;21.59;27.98;97191.16;5034483;28;948;-75
2022/06/10 00:33:33;;;;;;;;;;;;;;;21.45;28.51;97186.03;5035048;28;954;-75
2022/06/10 00:35:59;;;;;;;;;;;;;;;21.50;28.35;97188.28;5035082;28;918;-76
2022/06/10 00:38:24;;;;;;;;;;;;;;;21.29;28.96;97182.16;5034672;28;969;-75
2022/06/10 00:40:51;;;;;;;;;;;;;;;21.11;28.89;97145.28;5035112;28;937;-75
2022/06/10 00:43:17;;;;;;;;;;;;;;;21.31;28.97;97182.53;5034564;28;969;-76
2022/06/10 00:46:01;;;;;;;;;;;;;;;21.28;29.04;97179.81;4973353;28;2017;-75
2022/06/10 00:48:33;;;;;;;;;;;;;;;21.36;28.96;97183.97;4973327;28;965;-75
2022/06/10 00:50:59;;;;;;;;;;;;;;;22.30;27.66;97193.94;4973477;28;965;-75
2022/06/10 00:53:26;;;;;;;;;;;;;;;22.80;26.95;97185.34;4957199;28;1031;-75
2022/06/10 00:55:52;;;;;;;;;;;;;;;22.09;27.46;97189.94;4973358;28;1005;-75
2022/06/10 00:58:22;;;;;;;;;;;;;;;21.64;28.38;97187.72;4957408;28;1180;-76
2022/06/10 01:00:48;;;;;;;;;;;;;;;21.75;28.44;97190.91;4973770;28;987;-76
2022/06/10 01:03:13;;;;;;;;;;;;;;;21.68;28.62;97194.03;4972960;28;951;-75
2022/06/10 01:05:38;;;;;;;;;;;;;;;21.54;28.61;97188.94;4934736;29;1993;-75
2022/06/10 01:08:06;;;;;;;;;;;;;;;21.43;28.88;97183.69;4934627;29;1127;-75
2022/06/10 01:10:34;;;;;;;;;;;;;;;21.38;29.04;97186.34;4935133;29;984;-76
2022/06/10 01:13:08;;;;;;;;;;;;;;;21.55;28.80;97182.81;4938024;29;885;-76
2022/06/10 01:15:33;;;;;;;;;;;;;;;21.61;28.67;97183.00;4939914;28;1061;-75
2022/06/10 01:18:08;;;;;;;;;;;;;;;21.63;28.93;97197.47;4996359;28;1126;-75
2022/06/10 01:20:36;;;;;;;;;;;;;;;21.30;29.39;97189.44;4980513;28;1149;-75
2022/06/10 01:23:01;;;;;;;;;;;;;;;21.31;29.03;97191.03;4995860;28;988;-76
2022/06/10 01:25:42;;;;;;;;;;;;;;;21.43;29.05;97188.56;4996112;28;1996;-75
2022/06/10 01:28:39;;;;;;;;;;;;;;;22.10;28.12;97191.53;4996046;28;1163;-76
2022/06/10 01:31:17;;;;;;;;;;;;;;;21.82;27.34;97068.09;4938200;29;968;-76
2022/06/10 01:33:59;;;;;;;;;;;;;;;21.95;28.53;97187.69;4937647;29;908;-75
2022/06/10 01:36:26;;;;;;;;;;;;;;;21.63;29.00;97191.03;4922976;29;1606;-75
2022/06/10 01:39:10;;;;;;;;;;;;;;;21.46;29.30;97182.00;4918589;29;1044;-75
2022/06/10 01:41:37;;;;;;;;;;;;;;;21.59;29.15;97179.84;4918713;29;1030;-76
2022/06/10 01:44:25;;;;;;;;;;;;;;;21.47;29.29;97184.34;4899474;29;1937;-76
2022/06/10 01:46:55;;;;;;;;;;;;;;;21.55;29.02;97188.50;4901674;29;1911;-75
2022/06/10 01:49:24;;;;;;;;;;;;;;;21.48;28.98;97185.91;4880811;29;1148;-76
2022/06/10 01:51:58;;;;;;;;;;;;;;;21.36;29.06;97188.84;4880589;29;1036;-75
2022/06/10 01:54:23;;;;;;;;;;;;;;;21.44;29.07;97195.78;4880737;29;1039;-75
2022/06/10 01:56:49;;;;;;;;;;;;;;;21.24;29.27;97188.44;4881250;29;1077;-76
2022/06/10 01:59:17;;;;;;;;;;;;;;;21.56;29.04;97186.44;4865405;29;1064;-75
2022/06/10 02:01:44;;;;;;;;;;;;;;;21.51;29.09;97190.66;4880817;29;1034;-75
2022/06/10 02:04:14;;;;;;;;;;;;;;;21.24;29.35;97187.63;4865321;29;933;-76
2022/06/10 02:06:49;;;;;;;;;;;;;;;21.98;28.64;97191.63;4874416;29;1978;-75
2022/06/10 02:09:17;;;;;;;;;;;;;;;22.36;27.72;97194.91;4899660;29;1056;-76
2022/06/10 02:11:43;;;;;;;;;;;;;;;22.38;27.70;97194.41;4899496;29;961;-76
2022/06/10 02:14:11;;;;;;;;;;;;;;;21.93;28.34;97192.25;4899349;29;1388;-75
2022/06/10 02:16:38;;;;;;;;;;;;;;;21.81;28.62;97191.09;4934526;29;946;-76
2022/06/10 02:19:09;;;;;;;;;;;;;;;21.65;28.77;97192.13;4936770;29;1032;-75
2022/06/10 02:21:44;;;;;;;;;;;;;;;21.43;29.31;97188.56;4955867;29;1019;-75
2022/06/10 02:24:11;;;;;;;;;;;;;;;21.36;29.10;97188.84;4955388;29;1120;-75
2022/06/10 02:26:36;;;;;;;;;;;;;;;21.50;29.01;97193.94;4955716;29;1923;-75
2022/06/10 02:29:10;;;;;;;;;;;;;;;21.21;29.55;97195.00;4956479;29;1028;-75
2022/06/10 02:31:42;;;;;;;;;;;;;;;21.47;29.09;97189.22;4956054;29;1062;-75
2022/06/10 02:34:08;;;;;;;;;;;;;;;21.47;29.19;97194.88;4956101;29;1022;-76
2022/06/10 02:36:42;;;;;;;;;;;;;;;21.39;29.25;97200.00;4955823;29;1015;-75
2022/06/10 02:39:08;;;;;;;;;;;;;;;21.45;29.30;97203.03;4955858;29;1080;-76
2022/06/10 02:41:46;;;;;;;;;;;;;;;21.19;29.50;97197.53;4955845;29;1105;-76
2022/06/10 02:44:20;;;;;;;;;;;;;;;21.49;29.16;97206.50;4955796;29;986;-75
2022/06/10 02:46:48;;;;;;;;;;;;;;;22.12;28.59;97216.56;4955358;29;1973;-75
2022/06/10 02:49:15;;;;;;;;;;;;;;;22.48;27.72;97220.75;4955438;28;1010;-75
2022/06/10 02:51:40;;;;;;;;;;;;;;;21.89;28.41;97225.59;4958308;28;957;-75
2022/06/10 02:54:13;;;;;;;;;;;;;;;21.61;28.91;97221.84;4975941;28;992;-75
2022/06/10 02:56:38;;;;;;;;;;;;;;;21.43;29.28;97219.69;4994356;28;1035;-75
2022/06/10 03:02:03;;;;;;;;;;;;;;;21.36;29.16;97229.25;5000093;28;986;-76
2022/06/10 03:04:32;;;;;;;;;;;;;;;21.24;29.53;97235.72;5013959;28;986;-76
2022/06/10 03:07:03;;;;;;;;;;;;;;;21.30;29.39;97226.22;5013518;28;1906;-75
2022/06/10 03:09:47;;;;;;;;;;;;;;;21.53;29.02;97233.44;5013437;28;1357;-76
2022/06/10 03:12:33;;;;;;;;;;;;;;;21.28;29.55;97234.34;5013601;28;1016;-76
2022/06/10 03:15:00;;;;;;;;;;;;;;;21.25;29.66;97240.94;4997858;28;1016;-75
2022/06/10 03:17:25;;;;;;;;;;;;;;;21.12;29.65;97226.06;5013045;28;882;-76
2022/06/10 03:20:01;;;;;;;;;;;;;;;21.79;29.37;97228.38;5013762;28;985;-75
2022/06/10 03:22:45;;;;;;;;;;;;;;;22.39;27.96;97230.03;5009799;28;981;-76
2022/06/10 03:25:20;;;;;;;;;;;;;;;22.15;28.37;97231.84;5032955;28;1918;-75
2022/06/10 03:27:51;;;;;;;;;;;;;;;21.67;29.01;97232.09;5012692;28;958;-75
2022/06/10 03:30:18;;;;;;;;;;;;;;;21.33;29.32;97236.59;5013172;28;1231;-76
2022/06/10 03:32:49;;;;;;;;;;;;;;;21.59;29.14;97227.97;5013105;28;972;-75
2022/06/10 03:35:18;;;;;;;;;;;;;;;21.18;29.44;97229.88;5013055;28;1029;-75
2022/06/10 03:37:43;;;;;;;;;;;;;;;21.45;28.93;97231.31;5012975;28;1000;-75
2022/06/10 03:40:16;;;;;;;;;;;;;;;21.31;29.67;97233.47;5013278;28;1044;-75
2022/06/10 03:42:44;;;;;;;;;;;;;;;21.40;29.33;97231.94;5013238;28;987;-76
2022/06/10 03:45:12;;;;;;;;;;;;;;;21.28;29.71;97228.69;5013070;28;1979;-75
2022/06/10 03:47:38;;;;;;;;;;;;;;;21.47;29.44;97234.50;5012915;28;955;-75
2022/06/10 03:50:07;;;;;;;;;;;;;;;21.26;29.54;97236.84;5013093;28;984;-75
2022/06/10 03:52:33;;;;;;;;;;;;;;;21.47;29.19;97238.13;4974030;28;1014;-75
2022/06/10 03:54:59;;;;;;;;;;;;;;;21.52;29.49;97239.56;4973651;28;1278;-76
2022/06/10 03:57:24;;;;;;;;;;;;;;;21.39;29.29;97193.56;4977201;28;1101;-76
2022/06/10 03:59:50;;;;;;;;;;;;;;;22.22;28.47;97238.00;4993237;28;960;-76
2022/06/10 04:02:15;;;;;;;;;;;;;;;22.56;27.97;97239.81;4935243;29;987;-76
2022/06/10 04:04:42;;;;;;;;;;;;;;;21.90;28.40;97238.50;4897141;29;951;-76
2022/06/10 04:07:07;;;;;;;;;;;;;;;21.65;29.03;97240.25;4897726;29;1914;-76
2022/06/10 04:09:33;;;;;;;;;;;;;;;21.79;29.07;97250.25;4878473;29;1030;-75
2022/06/10 04:11:58;;;;;;;;;;;;;;;21.51;29.19;97240.81;4879048;29;1018;-76
2022/06/10 04:14:24;;;;;;;;;;;;;;;21.27;29.55;97249.75;4879277;29;1008;-75
2022/06/10 04:16:49;;;;;;;;;;;;;;;21.31;29.44;97250.44;4878707;29;960;-75
2022/06/10 04:19:15;;;;;;;;;;;;;;;21.57;29.47;97251.06;4878101;29;996;-76
2022/06/10 04:21:40;;;;;;;;;;;;;;;21.08;30.03;97248.81;4878912;29;1070;-75
2022/06/10 04:24:06;;;;;;;;;;;;;;;21.21;29.71;97248.75;4905732;29;1092;-76
2022/06/10 04:26:31;;;;;;;;;;;;;;;21.47;29.59;97251.50;4916292;29;1978;-76
2022/06/10 04:28:57;;;;;;;;;;;;;;;21.59;29.13;97253.44;4915734;29;1026;-76
2022/06/10 04:31:22;;;;;;;;;;;;;;;21.38;29.87;97257.88;4916468;29;1050;-75
2022/06/10 04:33:48;;;;;;;;;;;;;;;21.49;29.38;97260.28;4915980;29;1002;-75
2022/06/10 04:36:14;;;;;;;;;;;;;;;21.80;29.38;97269.59;4944007;29;967;-76
2022/06/10 04:38:40;;;;;;;;;;;;;;;22.38;28.39;97273.00;4958402;28;1015;-75
2022/06/10 04:41:06;;;;;;;;;;;;;;;22.22;28.32;97272.00;5042782;28;1064;-75
2022/06/10 04:43:32;;;;;;;;;;;;;;;21.95;28.94;97271.88;5054493;28;898;-76
2022/06/10 04:45:58;;;;;;;;;;;;;;;21.59;29.13;97267.59;5056261;28;1901;-75
2022/06/10 04:48:24;;;;;;;;;;;;;;;21.40;29.89;97271.53;5058796;28;1052;-75
2022/06/10 04:50:49;;;;;;;;;;;;;;;21.43;29.65;97273.47;5007110;28;1010;-76
2022/06/10 04:53:15;;;;;;;;;;;;;;;21.50;29.62;97270.34;5058769;28;991;-76
2022/06/10 04:55:40;;;;;;;;;;;;;;;21.53;29.24;97275.09;5058193;28;943;-76
2022/06/10 04:58:06;;;;;;;;;;;;;;;21.32;29.87;97277.47;5058267;28;1578;-76
2022/06/10 05:00:33;;;;;;;;;;;;;;;21.44;29.28;97273.00;5058331;28;1210;-76
2022/06/10 05:02:58;;;;;;;;;;;;;;;21.49;29.78;97277.28;5058296;28;978;-75
2022/06/10 05:05:24;;;;;;;;;;;;;;;21.49;29.86;97272.41;5058610;28;1899;-75
2022/06/10 05:07:49;;;;;;;;;;;;;;;21.33;30.29;97281.09;5058464;28;1014;-76
2022/06/10 05:10:15;;;;;;;;;;;;;;;21.27;30.05;97294.22;5057408;28;1027;-75
2022/06/10 05:12:40;;;;;;;;;;;;;;;21.64;29.61;97289.63;5058682;28;941;-76
2022/06/10 05:15:06;;;;;;;;;;;;;;;21.86;29.67;97295.25;5058051;28;1111;-76
2022/06/10 05:17:32;;;;;;;;;;;;;;;22.48;28.63;97317.13;5057921;28;997;-75
2022/06/10 05:19:57;;;;;;;;;;;;;;;22.23;28.69;97296.28;5058443;28;1021;-75
2022/06/10 05:22:23;;;;;;;;;;;;;;;21.97;29.08;97300.53;5057722;28;987;-75
2022/06/10 05:24:48;;;;;;;;;;;;;;;21.63;29.87;97299.38;5057585;28;896;-76
2022/06/10 05:27:14;;;;;;;;;;;;;;;21.58;29.76;97302.81;4996007;28;1984;-75
2022/06/10 05:29:39;;;;;;;;;;;;;;;21.51;29.90;97297.44;4996117;28;906;-75
2022/06/10 05:32:05;;;;;;;;;;;;;;;21.47;30.00;97305.25;4996115;28;1050;-75
2022/06/10 05:34:46;;;;;;;;;;;;;;;21.39;30.16;97301.09;4996142;28;1212;-76
2022/06/10 05:37:13;;;;;;;;;;;;;;;21.43;30.21;97301.78;4983009;28;1104;-76
2022/06/10 05:39:38;;;;;;;;;;;;;;;21.56;29.64;97302.50;4976450;28;1014;-75
2022/06/10 05:42:08;;;;;;;;;;;;;;;21.47;30.08;97308.09;4976433;28;1074;-76
2022/06/10 05:44:34;;;;;;;;;;;;;;;21.52;32.29;97305.44;4976267;28;1153;-74
2022/06/10 05:47:03;;;;;;;;;;;;;;;22.09;34.34;97308.16;4976516;28;1915;-72
2022/06/10 05:49:28;;;;;;;;;;;;;;;22.35;35.92;97303.88;4976338;28;1070;-75
2022/06/10 05:51:54;;;;;;;;;;;;;;;22.08;37.45;97320.72;4976650;28;1001;-78
2022/06/10 05:54:20;;;;;;;;;;;;;;;21.98;37.95;97319.09;4938457;29;1030;-75
2022/06/10 05:56:45;;;;;;;;;;;;;;;22.04;38.00;97317.25;4918435;29;1190;-77
2022/06/10 05:59:11;;;;;;;;;;;;;;;22.20;37.81;97319.88;4952183;28;1069;-76
2022/06/10 06:01:38;;;;;;;;;;;;;;;22.38;38.04;97318.34;4899476;29;1224;-75
2022/06/10 06:04:03;;;;;;;;;;;;;;;22.30;38.32;97315.81;4881004;29;1019;-74
2022/06/10 06:06:29;;;;;;;;;;;;;;;22.36;38.02;97333.78;4881243;29;2002;-74
2022/06/10 06:08:54;;;;;;;;;;;;;;;21.97;37.75;97328.88;4881227;29;1042;-77
2022/06/10 06:11:19;;;;;;;;;;;;;;;21.90;36.91;97323.47;4873920;29;1523;-77
2022/06/10 06:13:45;;;;;;;;;;;;;;;21.86;36.07;97323.59;4843674;29;1056;-77
2022/06/10 06:16:14;;;;;;;;;;;;;;;22.01;34.85;97326.66;4844826;29;1087;-77
2022/06/10 06:18:40;;;;;;;;;;;;;;;21.78;34.89;97328.75;4826415;29;1078;-78
2022/06/10 06:21:05;;;;;;;;;;;;;;;21.91;33.98;97330.69;4829141;29;1082;-79
2022/06/10 06:23:31;;;;;;;;;;;;;;;21.75;33.86;97335.31;4826526;29;1103;-78
2022/06/10 06:25:56;;;;;;;;;;;;;;;21.99;33.23;97338.47;4854245;29;1911;-73
2022/06/10 06:28:22;;;;;;;;;;;;;;;23.13;34.56;97344.41;4861806;29;988;-73
2022/06/10 06:30:47;;;;;;;;;;;;;;;23.95;35.11;97345.66;4862423;29;1029;-72
2022/06/10 06:33:13;;;;;;;;;;;;;;;23.86;35.97;97344.41;4905488;29;1005;-74
2022/06/10 06:35:38;;;;;;;;;;;;;;;24.36;35.13;97350.63;4956088;28;965;-74
2022/06/10 06:38:04;;;;;;;;;;;;;;;24.58;34.74;97343.88;4917762;29;1083;-74
2022/06/10 06:40:29;;;;;;;;;;;;;;;24.62;34.96;97353.81;4916673;29;1076;-74
2022/06/10 06:42:55;;;;;;;;;;;;;;;24.69;35.48;97358.38;4899150;29;1021;-71
2022/06/10 06:45:21;;;;;;;;;;;;;;;24.70;35.40;97354.25;4898972;29;1984;-72
2022/06/10 06:47:46;;;;;;;;;;;;;;;24.68;34.62;97362.50;4899156;29;1046;-73
2022/06/10 06:50:13;;;;;;;;;;;;;;;24.50;35.55;97362.56;4926213;29;1081;-71
2022/06/10 06:52:39;;;;;;;;;;;;;;;24.80;34.54;97357.84;4937059;29;1293;-71
2022/06/10 06:55:05;;;;;;;;;;;;;;;24.69;35.25;97358.38;4936415;29;1186;-69
2022/06/10 06:57:30;;;;;;;;;;;;;;;24.21;35.46;97355.38;4941303;28;1083;-72
2022/06/10 07:00:05;;;;;;;;;;;;;;;24.72;35.58;97363.09;4955845;28;1058;-72
2022/06/10 07:02:30;;;;;;;;;;;;;;;24.71;34.82;97360.72;4955477;29;1017;-72
2022/06/10 07:04:56;;;;;;;;;;;;;;;24.59;34.22;97359.69;4955290;29;1059;-70
2022/06/10 07:07:21;;;;;;;;;;;;;;;24.20;35.31;97356.66;4975750;28;1929;-71
2022/06/10 07:09:47;;;;;;;;;;;;;;;24.40;34.48;97359.78;4993762;28;1133;-70
2022/06/10 07:12:12;;;;;;;;;;;;;;;23.96;35.09;97369.97;4993877;28;1435;-71
2022/06/10 07:14:39;;;;;;;;;;;;;;;23.87;34.85;97367.91;4996725;28;1468;-70
2022/06/10 07:17:04;;;;;;;;;;;;;;;23.77;34.68;97364.31;4976328;28;1030;-71
2022/06/10 07:19:30;;;;;;;;;;;;;;;23.66;34.99;97369.69;4974126;28;1097;-71
2022/06/10 07:21:55;;;;;;;;;;;;;;;23.55;35.17;97369.34;4974423;28;1377;-71
2022/06/10 07:24:21;;;;;;;;;;;;;;;23.56;35.49;97368.88;4974363;28;973;-70
2022/06/10 07:26:46;;;;;;;;;;;;;;;23.69;35.50;97373.63;4976149;28;1910;-74
2022/06/10 07:29:12;;;;;;;;;;;;;;;23.86;34.70;97378.50;4983924;28;1723;-73
2022/06/10 07:31:40;;;;;;;;;;;;;;;23.92;34.73;97376.59;4981786;28;1674;-72
2022/06/10 07:34:06;;;;;;;;;;;;;;;24.03;34.52;97381.00;4954751;29;1663;-75
2022/06/10 07:36:31;;;;;;;;;;;;;;;23.64;34.78;97377.91;4954705;29;1065;-72
2022/06/10 07:38:56;;;;;;;;;;;;;;;23.38;35.38;97378.19;4954946;29;1660;-74
2022/06/10 07:44:06;;;;;;;;;;;;;;;23.39;35.29;97388.28;4954794;29;1079;-70
2022/06/10 07:46:33;;;;;;;;;;;;;;;23.53;34.97;97394.59;4954817;29;1991;-70
2022/06/10 07:48:58;;;;;;;;;;;;;;;23.58;34.88;97393.97;4943934;29;1951;-72
2022/06/10 07:51:24;;;;;;;;;;;;;;;23.21;34.50;97391.09;4952650;29;1209;-76
2022/06/10 07:53:49;;;;;;;;;;;;;;;22.96;34.66;97397.03;4954291;29;1437;-77
2022/06/10 07:56:15;;;;;;;;;;;;;;;23.13;33.63;97401.16;4955488;29;1011;-77
2022/06/10 07:58:41;;;;;;;;;;;;;;;22.95;33.28;97406.78;4935694;29;1119;-77
2022/06/10 08:01:06;;;;;;;;;;;;;;;22.92;32.83;97407.75;4917422;29;1440;-76
2022/06/10 08:03:32;;;;;;;;;;;;;;;23.08;32.30;97407.47;4924349;29;1255;-76
2022/06/10 08:05:58;;;;;;;;;;;;;;;23.01;32.15;97407.78;4929311;29;1899;-76
2022/06/10 08:08:23;;;;;;;;;;;;;;;22.74;32.09;97406.41;4916491;29;1171;-76
2022/06/10 08:10:49;;;;;;;;;;;;;;;22.85;31.81;97409.59;4897457;29;983;-76
2022/06/10 08:13:14;;;;;;;;;;;;;;;22.96;31.71;97414.06;4897647;29;1124;-76
2022/06/10 08:15:40;;;;;;;;;;;;;;;22.82;31.64;97419.03;4897379;29;919;-76
2022/06/10 08:18:06;;;;;;;;;;;;;;;22.71;31.67;97415.84;4897539;29;956;-76
2022/06/10 08:23:16;;;;;;;;;;;;;;;22.84;31.25;97413.66;4878778;29;1004;-76
2022/06/10 08:25:42;;;;;;;;;;;;;;;22.80;31.21;97415.88;4878929;29;1907;-76
2022/06/10 08:28:07;;;;;;;;;;;;;;;22.76;31.02;97426.56;4859815;29;1023;-76
2022/06/10 08:30:33;;;;;;;;;;;;;;;22.81;30.70;97417.44;4829052;29;1204;-76
2022/06/10 08:32:59;;;;;;;;;;;;;;;22.75;31.11;97416.47;4860062;29;1086;-76
2022/06/10 08:35:24;;;;;;;;;;;;;;;22.83;30.99;97416.97;4859917;29;989;-76
2022/06/10 08:37:50;;;;;;;;;;;;;;;22.56;31.11;97426.16;4875153;29;1787;-76
2022/06/10 08:40:22;;;;;;;;;;;;;;;22.65;30.99;97417.72;4853049;29;1125;-76
2022/06/10 08:42:48;;;;;;;;;;;;;;;22.64;30.87;97424.63;4895104;29;1145;-76
2022/06/10 08:45:20;;;;;;;;;;;;;;;22.69;30.59;97424.03;4861656;29;1978;-76
2022/06/10 08:47:50;;;;;;;;;;;;;;;22.60;30.81;97426.81;4859499;29;987;-76
2022/06/10 08:50:15;;;;;;;;;;;;;;;22.44;30.79;97429.91;4859030;29;873;-76
2022/06/10 08:52:46;;;;;;;;;;;;;;;22.53;30.91;97439.22;4859692;29;897;-76
2022/06/10 08:55:21;;;;;;;;;;;;;;;22.56;30.65;97440.34;4841014;29;910;-76
2022/06/10 08:57:47;;;;;;;;;;;;;;;22.65;30.45;97440.41;4859026;29;1194;-76
2022/06/10 09:00:15;;;;;;;;;;;;;;;22.82;30.35;97440.94;4894759;29;995;-71
2022/06/10 09:03:00;;;;;;;;;;;;;;;23.08;31.79;97433.78;4881192;29;1057;-74
2022/06/10 09:05:27;;;;;;;;;;;;;;;22.61;33.97;97446.19;4841398;29;1986;-75
2022/06/10 09:07:55;;;;;;;;;;;;;;;22.55;33.31;97444.44;4844956;29;1976;-76
2022/06/10 09:10:22;;;;;;;;;;;;;;;22.71;32.48;97444.19;4841946;29;1069;-76
2022/06/10 09:13:06;;;;;;;;;;;;;;;22.49;32.34;97438.59;4822259;29;954;-76
2022/06/10 09:15:32;;;;;;;;;;;;;;;22.48;31.80;97467.38;4824427;29;1062;-76
2022/06/10 09:18:03;;;;;;;;;;;;;;;22.44;31.61;97446.91;4823801;29;1001;-76
2022/06/10 09:20:35;;;;;;;;;;;;;;;22.49;31.10;97446.31;4823997;29;959;-78
2022/06/10 09:23:15;;;;;;;;;;;;;;;22.30;31.07;97440.53;4805177;29;988;-77
2022/06/10 09:25:43;;;;;;;;;;;;;;;22.33;30.94;97448.09;4805071;29;1986;-76
2022/06/10 09:28:09;;;;;;;;;;;;;;;22.48;30.21;97442.66;4809297;29;1111;-76
2022/06/10 09:30:47;;;;;;;;;;;;;;;22.31;30.36;97438.47;4823434;29;1033;-76
2022/06/10 09:33:30;;;;;;;;;;;;;;;22.33;30.15;97448.09;4799919;29;1000;-77
2022/06/10 09:36:09;;;;;;;;;;;;;;;22.14;30.54;97446.41;4826712;29;979;-76
2022/06/10 09:38:43;;;;;;;;;;;;;;;22.07;30.29;97450.28;4826338;29;941;-76
2022/06/10 09:41:09;;;;;;;;;;;;;;;22.22;29.98;97447.69;4826585;29;994;-77
2022/06/10 09:43:53;;;;;;;;;;;;;;;22.00;30.45;97446.91;4841215;29;979;-76
2022/06/10 09:46:34;;;;;;;;;;;;;;;22.13;29.85;97455.38;4879700;29;1907;-76
2022/06/10 09:49:05;;;;;;;;;;;;;;;22.23;29.84;97454.97;4881770;29;972;-76
2022/06/10 09:51:33;;;;;;;;;;;;;;;22.09;29.79;97455.47;4882198;29;1033;-76
2022/06/10 09:53:58;;;;;;;;;;;;;;;22.08;29.70;97459.56;4890855;29;954;-77
2022/06/10 09:56:24;;;;;;;;;;;;;;;22.07;30.00;97463.63;4934547;29;994;-77
2022/06/10 09:59:04;;;;;;;;;;;;;;;22.23;29.49;97468.34;4952983;29;1050;-76
2022/06/10 10:01:41;;;;;;;;;;;;;;;21.95;29.85;97470.16;4957405;28;957;-76
2022/06/10 10:04:25;;;;;;;;;;;;;;;21.84;29.81;97468.50;4958885;28;1005;-76
2022/06/10 10:07:09;;;;;;;;;;;;;;;21.83;29.79;97466.91;4979642;28;1911;-76
2022/06/10 10:09:46;;;;;;;;;;;;;;;21.84;29.76;97470.53;5015570;28;1028;-76
2022/06/10 10:12:27;;;;;;;;;;;;;;;22.15;29.31;97470.66;5018800;28;892;-76
2022/06/10 10:15:01;;;;;;;;;;;;;;;21.83;29.88;97471.78;4977537;28;1894;-76
2022/06/10 10:17:30;;;;;;;;;;;;;;;21.95;29.29;97478.66;4995858;28;1186;-77
2022/06/10 10:20:07;;;;;;;;;;;;;;;21.93;29.60;97484.00;4996184;28;934;-76
2022/06/10 10:22:58;;;;;;;;;;;;;;;22.00;29.42;97480.88;4995848;28;974;-76
2022/06/10 10:25:24;;;;;;;;;;;;;;;21.91;29.40;97483.66;4918580;29;1899;-77
2022/06/10 10:27:50;;;;;;;;;;;;;;;21.91;29.26;97486.47;4880884;29;1013;-77
2022/06/10 10:30:15;;;;;;;;;;;;;;;22.01;29.11;97488.91;4843641;29;997;-77
2022/06/10 10:32:41;;;;;;;;;;;;;;;22.00;29.04;97486.56;4844061;29;925;-76
2022/06/10 10:35:20;;;;;;;;;;;;;;;22.08;29.10;97487.88;4825259;29;1265;-77
2022/06/10 10:37:59;;;;;;;;;;;;;;;21.77;29.34;97485.75;4789753;29;1002;-77
2022/06/10 10:40:30;;;;;;;;;;;;;;;21.91;29.34;97490.09;4789284;29;1098;-77
2022/06/10 10:42:55;;;;;;;;;;;;;;;21.81;29.43;97486.41;4789365;29;990;-76
2022/06/10 10:45:30;;;;;;;;;;;;;;;21.90;29.40;97487.72;4798913;29;1973;-76
2022/06/10 10:47:56;;;;;;;;;;;;;;;21.58;29.61;97479.13;4825764;29;914;-76
2022/06/10 10:50:25;;;;;;;;;;;;;;;21.71;29.76;97481.09;4825623;29;1094;-76
2022/06/10 10:52:50;;;;;;;;;;;;;;;21.74;29.39;97480.22;4807644;29;988;-76
2022/06/10 10:55:16;;;;;;;;;;;;;;;21.60;29.61;97481.50;4807333;29;1105;-76
2022/06/10 10:57:45;;;;;;;;;;;;;;;21.80;29.50;97479.16;4789032;29;1132;-76
2022/06/10 11:00:11;;;;;;;;;;;;;;;21.72;29.35;97474.22;4807814;29;1008;-76
2022/06/10 11:02:39;;;;;;;;;;;;;;;21.73;29.67;97468.09;4837047;29;1056;-77
2022/06/10 11:05:10;;;;;;;;;;;;;;;21.85;29.33;97469.28;4842274;29;977;-76
2022/06/10 11:07:36;;;;;;;;;;;;;;;21.70;29.45;97469.00;4825340;29;1915;-76
2022/06/10 11:10:05;;;;;;;;;;;;;;;21.65;29.65;97466.75;4843726;29;1020;-76
2022/06/10 11:12:31;;;;;;;;;;;;;;;21.70;29.47;97463.34;4846388;29;1133;-77
2022/06/10 11:14:58;;;;;;;;;;;;;;;21.73;29.57;97462.44;4861818;29;1411;-76
2022/06/10 11:17:23;;;;;;;;;;;;;;;21.85;29.50;97458.75;4884716;29;1244;-76
2022/06/10 11:19:51;;;;;;;;;;;;;;;21.68;29.72;97450.91;4824002;29;1250;-76
2022/06/10 11:22:21;;;;;;;;;;;;;;;21.82;29.32;97448.34;4823704;29;1155;-76
2022/06/10 11:24:48;;;;;;;;;;;;;;;21.65;29.63;97466.75;4872178;29;1419;-76
2022/06/10 11:27:32;;;;;;;;;;;;;;;21.62;29.99;97462.03;4878585;29;1911;-77
2022/06/10 11:30:10;;;;;;;;;;;;;;;21.71;29.41;97469.78;4897866;29;1123;-76
2022/06/10 11:32:39;;;;;;;;;;;;;;;21.72;29.85;97483.50;4917546;29;956;-76
2022/06/10 11:35:20;;;;;;;;;;;;;;;21.64;29.61;97470.84;4917962;29;964;-76
2022/06/10 11:37:46;;;;;;;;;;;;;;;21.72;29.56;97472.19;4917489;29;903;-76
2022/06/10 11:40:15;;;;;;;;;;;;;;;21.47;30.24;97475.09;4917744;29;979;-76
2022/06/10 11:42:45;;;;;;;;;;;;;;;21.66;29.71;97465.53;4917034;29;952;-77
2022/06/10 11:45:10;;;;;;;;;;;;;;;21.58;29.74;97461.34;4917546;29;1027;-76
2022/06/10 11:47:41;;;;;;;;;;;;;;;21.71;29.48;97464.94;4923606;29;1926;-76
2022/06/10 11:50:09;;;;;;;;;;;;;;;21.73;29.53;97473.75;4962525;28;1045;-76
2022/06/10 11:52:41;;;;;;;;;;;;;;;21.57;29.76;97471.09;4994313;28;1029;-76
2022/06/10 11:55:14;;;;;;;;;;;;;;;21.92;29.40;97473.91;4994087;28;1032;-76
2022/06/10 12:00:33;;;;;;;;;;;;;;;21.73;29.54;97485.06;4955162;29;1274;-76
2022/06/10 12:03:17;;;;;;;;;;;;;;;21.78;29.27;97476.00;4955510;29;945;-76
2022/06/10 12:05:58;;;;;;;;;;;;;;;21.73;29.68;97481.47;4937517;29;1902;-76
2022/06/10 12:08:29;;;;;;;;;;;;;;;21.61;29.91;97477.44;4935958;29;947;-76
2022/06/10 12:10:57;;;;;;;;;;;;;;;21.74;29.61;97475.34;4935981;29;1072;-76
2022/06/10 12:13:22;;;;;;;;;;;;;;;21.68;29.45;97482.84;4920185;29;995;-76
2022/06/10 12:15:49;;;;;;;;;;;;;;;21.65;29.36;97482.94;4920102;29;926;-76
2022/06/10 12:18:15;;;;;;;;;;;;;;;21.69;29.56;97478.75;4936104;29;991;-76
2022/06/10 12:20:47;;;;;;;;;;;;;;;21.62;29.64;97479.00;4935696;29;982;-76
2022/06/10 12:23:14;;;;;;;;;;;;;;;21.81;29.29;97468.63;4935763;29;983;-76
2022/06/10 12:25:49;;;;;;;;;;;;;;;21.65;29.53;97466.75;4909655;29;1904;-76
2022/06/10 12:28:34;;;;;;;;;;;;;;;21.73;29.34;97468.09;4929707;29;986;-76
2022/06/10 12:31:20;;;;;;;;;;;;;;;21.63;29.51;97468.47;4925223;29;1034;-76
2022/06/10 12:33:50;;;;;;;;;;;;;;;21.73;29.70;97462.44;4935977;29;922;-76
2022/06/10 12:36:17;;;;;;;;;;;;;;;21.73;29.35;97468.09;4935550;29;1265;-76
2022/06/10 12:38:43;;;;;;;;;;;;;;;21.68;29.71;97471.50;4897634;29;1028;-76
2022/06/10 12:41:16;;;;;;;;;;;;;;;21.69;29.49;97460.97;4841724;29;944;-76
2022/06/10 12:43:53;;;;;;;;;;;;;;;21.61;29.60;97470.97;4805472;29;988;-76
2022/06/10 12:46:38;;;;;;;;;;;;;;;21.64;29.60;97470.03;4805344;29;1920;-76
2022/06/10 12:49:16;;;;;;;;;;;;;;;21.62;29.71;97476.19;4805937;29;1039;-76
2022/06/10 12:51:43;;;;;;;;;;;;;;;21.60;29.62;97481.50;4787691;29;1045;-76
2022/06/10 12:54:48;;;;;;;;;;;;;;;21.64;29.51;97479.31;4773245;29;991;-76
2022/06/10 12:57:22;;;;;;;;;;;;;;;21.67;29.42;97472.75;4782898;29;1029;-76
2022/06/10 12:59:48;;;;;;;;;;;;;;;21.55;29.68;97468.72;4787935;30;1018;-76
2022/06/10 13:02:42;;;;;;;;;;;;;;;21.33;29.86;97468.66;4787663;29;1009;-76
2022/06/10 13:05:16;;;;;;;;;;;;;;;21.70;29.31;97469.00;4769730;30;1126;-76
2022/06/10 13:07:41;;;;;;;;;;;;;;;21.41;30.13;97466.38;4783612;29;1994;-76
2022/06/10 13:10:25;;;;;;;;;;;;;;;21.59;29.60;97463.72;4790881;30;936;-76
2022/06/10 13:12:51;;;;;;;;;;;;;;;21.46;29.58;97459.34;4804963;29;926;-76
2022/06/10 13:15:23;;;;;;;;;;;;;;;21.67;29.56;97452.94;4787975;29;998;-76
2022/06/10 13:17:52;;;;;;;;;;;;;;;21.53;29.40;97453.44;4790840;30;1024;-76
2022/06/10 13:20:18;;;;;;;;;;;;;;;21.56;29.56;97458.19;4806012;29;963;-76
2022/06/10 13:22:44;;;;;;;;;;;;;;;21.60;29.58;97453.19;4809365;29;1101;-76